sensor_id;sensor_type;location;lat;lon;timestamp;pressure;altitude;pressure_sealevel;temperature;humidity
74627;BME280;63132;52.268;5.192;2023-04-23T00:02:06;100690.38;;;5.72;96.45
74627;BME280;63132;52.268;5.192;2023-04-23T00:04:35;100691.50;;;5.68;96.64
74627;BME280;63132;52.268;5.192;2023-04-23T00:07:02;100684.34;;;5.70;96.75
74627;BME280;63132;52.268;5.192;2023-04-23T00:09:30;100688.31;;;5.63;96.56
74627;BME280;63132;52.268;5.192;2023-04-23T00:11:57;100696.69;;;5.69;96.70
74627;BME280;63132;52.268;5.192;2023-04-23T00:14:22;100676.78;;;5.64;96.73
74627;BME280;63132;52.268;5.192;2023-04-23T00:16:48;100686.78;;;5.59;96.93
74627;BME280;63132;52.268;5.192;2023-04-23T00:19:13;100687.72;;;5.57;96.92
74627;BME280;63132;52.268;5.192;2023-04-23T00:21:38;100686.03;;;5.56;96.91
74627;BME280;63132;52.268;5.192;2023-04-23T00:24:04;100684.44;;;5.68;96.94
74627;BME280;63132;52.268;5.192;2023-04-23T00:26:29;100675.38;;;5.58;97.03
74627;BME280;63132;52.268;5.192;2023-04-23T00:28:55;100675.28;;;5.60;96.85
74627;BME280;63132;52.268;5.192;2023-04-23T00:31:20;100676.22;;;5.59;96.63
74627;BME280;63132;52.268;5.192;2023-04-23T00:33:46;100675.84;;;5.65;96.77
74627;BME280;63132;52.268;5.192;2023-04-23T00:36:12;100678.47;;;5.50;96.89
74627;BME280;63132;52.268;5.192;2023-04-23T00:38:37;100674.50;;;5.57;96.88
74627;BME280;63132;52.268;5.192;2023-04-23T00:41:02;100667.56;;;5.56;97.21
74627;BME280;63132;52.268;5.192;2023-04-23T00:43:28;100667.28;;;5.61;96.88
74627;BME280;63132;52.268;5.192;2023-04-23T00:45:53;100666.59;;;5.57;96.76
74627;BME280;63132;52.268;5.192;2023-04-23T00:48:20;100656.78;;;5.60;97.11
74627;BME280;63132;52.268;5.192;2023-04-23T00:50:45;100662.84;;;5.62;96.99
74627;BME280;63132;52.268;5.192;2023-04-23T00:53:10;100657.84;;;5.57;97.00
74627;BME280;63132;52.268;5.192;2023-04-23T00:55:36;100654.06;;;5.76;96.94
74627;BME280;63132;52.268;5.192;2023-04-23T00:58:02;100644.84;;;5.68;97.01
74627;BME280;63132;52.268;5.192;2023-04-23T01:00:28;100644.94;;;5.82;97.32
74627;BME280;63132;52.268;5.192;2023-04-23T01:02:53;100642.69;;;5.61;97.03
74627;BME280;63132;52.268;5.192;2023-04-23T01:05:20;100631.91;;;5.64;97.37
74627;BME280;63132;52.268;5.192;2023-04-23T01:07:47;100635.13;;;5.54;97.02
74627;BME280;63132;52.268;5.192;2023-04-23T01:10:13;100637.97;;;5.51;97.13
74627;BME280;63132;52.268;5.192;2023-04-23T01:12:38;100632.84;;;5.48;97.18
74627;BME280;63132;52.268;5.192;2023-04-23T01:15:04;100633.81;;;5.47;97.43
74627;BME280;63132;52.268;5.192;2023-04-23T01:17:30;100634.38;;;5.52;97.37
74627;BME280;63132;52.268;5.192;2023-04-23T01:19:56;100629.09;;;5.52;97.49
74627;BME280;63132;52.268;5.192;2023-04-23T01:22:22;100630.22;;;5.63;97.48
74627;BME280;63132;52.268;5.192;2023-04-23T01:24:48;100622.88;;;5.68;97.69
74627;BME280;63132;52.268;5.192;2023-04-23T01:27:14;100621.19;;;5.67;97.56
74627;BME280;63132;52.268;5.192;2023-04-23T01:29:40;100616.63;;;5.69;97.70
74627;BME280;63132;52.268;5.192;2023-04-23T01:32:06;100616.84;;;5.66;97.80
74627;BME280;63132;52.268;5.192;2023-04-23T01:34:32;100612.75;;;5.75;97.46
74627;BME280;63132;52.268;5.192;2023-04-23T01:36:58;100615.03;;;5.81;97.83
74627;BME280;63132;52.268;5.192;2023-04-23T01:39:24;100605.28;;;5.96;97.61
74627;BME280;63132;52.268;5.192;2023-04-23T01:41:50;100603.22;;;6.01;97.62
74627;BME280;63132;52.268;5.192;2023-04-23T01:44:17;100601.50;;;6.15;97.60
74627;BME280;63132;52.268;5.192;2023-04-23T01:46:42;100598.56;;;6.20;97.63
74627;BME280;63132;52.268;5.192;2023-04-23T01:49:07;100594.91;;;6.22;97.44
74627;BME280;63132;52.268;5.192;2023-04-23T01:51:33;100598.25;;;6.24;97.20
74627;BME280;63132;52.268;5.192;2023-04-23T01:53:59;100594.16;;;6.20;97.27
74627;BME280;63132;52.268;5.192;2023-04-23T01:56:26;100589.78;;;6.19;97.24
74627;BME280;63132;52.268;5.192;2023-04-23T01:58:52;100591.41;;;6.22;97.40
74627;BME280;63132;52.268;5.192;2023-04-23T02:01:17;100591.94;;;6.27;97.15
74627;BME280;63132;52.268;5.192;2023-04-23T02:03:43;100589.66;;;6.35;97.20
74627;BME280;63132;52.268;5.192;2023-04-23T02:06:10;100583.03;;;6.56;97.41
74627;BME280;63132;52.268;5.192;2023-04-23T02:08:35;100584.69;;;6.44;97.33
74627;BME280;63132;52.268;5.192;2023-04-23T02:11:01;100588.41;;;6.41;96.98
74627;BME280;63132;52.268;5.192;2023-04-23T02:13:26;100580.66;;;6.38;96.90
74627;BME280;63132;52.268;5.192;2023-04-23T02:15:51;100568.31;;;6.38;96.96
74627;BME280;63132;52.268;5.192;2023-04-23T02:18:17;100570.97;;;6.51;96.89
74627;BME280;63132;52.268;5.192;2023-04-23T02:20:42;100566.84;;;6.47;96.60
74627;BME280;63132;52.268;5.192;2023-04-23T02:23:08;100570.03;;;6.53;96.47
74627;BME280;63132;52.268;5.192;2023-04-23T02:25:35;100569.34;;;6.36;96.33
74627;BME280;63132;52.268;5.192;2023-04-23T02:28:03;100573.28;;;6.43;96.40
74627;BME280;63132;52.268;5.192;2023-04-23T02:30:31;100559.66;;;6.49;96.78
74627;BME280;63132;52.268;5.192;2023-04-23T02:32:57;100565.38;;;6.43;96.61
74627;BME280;63132;52.268;5.192;2023-04-23T02:35:22;100563.78;;;6.54;96.86
74627;BME280;63132;52.268;5.192;2023-04-23T02:37:48;100560.75;;;6.60;96.50
74627;BME280;63132;52.268;5.192;2023-04-23T02:40:13;100557.31;;;6.32;96.39
74627;BME280;63132;52.268;5.192;2023-04-23T02:42:38;100559.88;;;6.19;96.44
74627;BME280;63132;52.268;5.192;2023-04-23T02:45:04;100558.91;;;6.07;96.66
74627;BME280;63132;52.268;5.192;2023-04-23T02:47:30;100557.25;;;6.04;96.71
74627;BME280;63132;52.268;5.192;2023-04-23T02:49:56;100555.44;;;5.91;96.65
74627;BME280;63132;52.268;5.192;2023-04-23T02:52:22;100554.47;;;5.92;96.56
74627;BME280;63132;52.268;5.192;2023-04-23T02:54:47;100550.59;;;5.98;96.91
74627;BME280;63132;52.268;5.192;2023-04-23T02:57:13;100554.38;;;6.09;97.15
74627;BME280;63132;52.268;5.192;2023-04-23T02:59:40;100550.53;;;6.27;97.10
74627;BME280;63132;52.268;5.192;2023-04-23T03:02:06;100563.19;;;6.22;97.57
74627;BME280;63132;52.268;5.192;2023-04-23T03:04:31;100563.72;;;6.27;97.34
74627;BME280;63132;52.268;5.192;2023-04-23T03:06:57;100561.38;;;6.23;97.18
74627;BME280;63132;52.268;5.192;2023-04-23T03:09:22;100563.50;;;6.31;97.39
74627;BME280;63132;52.268;5.192;2023-04-23T03:11:48;100566.38;;;6.27;97.18
74627;BME280;63132;52.268;5.192;2023-04-23T03:14:13;100564.16;;;6.34;97.24
74627;BME280;63132;52.268;5.192;2023-04-23T03:16:38;100563.75;;;6.41;97.29
74627;BME280;63132;52.268;5.192;2023-04-23T03:19:04;100550.13;;;6.34;97.45
74627;BME280;63132;52.268;5.192;2023-04-23T03:21:29;100557.09;;;6.35;97.37
74627;BME280;63132;52.268;5.192;2023-04-23T03:23:54;100546.22;;;6.39;97.49
74627;BME280;63132;52.268;5.192;2023-04-23T03:26:20;100551.31;;;6.56;97.67
74627;BME280;63132;52.268;5.192;2023-04-23T03:28:45;100553.72;;;6.46;97.47
74627;BME280;63132;52.268;5.192;2023-04-23T03:31:11;100561.47;;;6.49;97.36
74627;BME280;63132;52.268;5.192;2023-04-23T03:33:36;100557.72;;;6.38;97.41
74627;BME280;63132;52.268;5.192;2023-04-23T03:36:01;100556.59;;;6.43;97.28
74627;BME280;63132;52.268;5.192;2023-04-23T03:38:27;100552.06;;;6.58;97.46
74627;BME280;63132;52.268;5.192;2023-04-23T03:40:52;100554.38;;;6.49;97.28
74627;BME280;63132;52.268;5.192;2023-04-23T03:43:17;100549.53;;;6.56;97.24
74627;BME280;63132;52.268;5.192;2023-04-23T03:45:43;100553.97;;;6.56;97.34
74627;BME280;63132;52.268;5.192;2023-04-23T03:48:09;100549.72;;;6.53;97.16
74627;BME280;63132;52.268;5.192;2023-04-23T03:50:34;100550.34;;;6.44;97.21
74627;BME280;63132;52.268;5.192;2023-04-23T03:53:03;100543.66;;;6.38;97.20
74627;BME280;63132;52.268;5.192;2023-04-23T03:55:29;100547.16;;;6.38;97.05
74627;BME280;63132;52.268;5.192;2023-04-23T03:57:54;100544.63;;;6.37;97.10
74627;BME280;63132;52.268;5.192;2023-04-23T04:00:20;100541.53;;;6.30;96.83
74627;BME280;63132;52.268;5.192;2023-04-23T04:02:45;100536.22;;;6.17;96.88
74627;BME280;63132;52.268;5.192;2023-04-23T04:05:11;100541.81;;;6.12;97.13
74627;BME280;63132;52.268;5.192;2023-04-23T04:07:36;100538.13;;;6.00;97.02
74627;BME280;63132;52.268;5.192;2023-04-23T04:10:02;100528.16;;;5.91;97.00
74627;BME280;63132;52.268;5.192;2023-04-23T04:12:29;100524.34;;;5.82;97.38
74627;BME280;63132;52.268;5.192;2023-04-23T04:14:54;100527.91;;;5.81;97.25
74627;BME280;63132;52.268;5.192;2023-04-23T04:17:19;100543.38;;;5.87;97.31
74627;BME280;63132;52.268;5.192;2023-04-23T04:19:45;100535.06;;;5.79;97.29
74627;BME280;63132;52.268;5.192;2023-04-23T04:22:10;100534.78;;;5.84;97.71
74627;BME280;63132;52.268;5.192;2023-04-23T04:24:35;100538.09;;;5.87;97.75
74627;BME280;63132;52.268;5.192;2023-04-23T04:27:02;100535.34;;;5.89;97.91
74627;BME280;63132;52.268;5.192;2023-04-23T04:29:27;100535.69;;;5.97;97.67
74627;BME280;63132;52.268;5.192;2023-04-23T04:31:53;100539.44;;;6.08;97.74
74627;BME280;63132;52.268;5.192;2023-04-23T04:34:19;100541.69;;;6.14;97.85
74627;BME280;63132;52.268;5.192;2023-04-23T04:36:44;100543.94;;;6.20;97.96
74627;BME280;63132;52.268;5.192;2023-04-23T04:39:11;100536.56;;;6.25;98.17
74627;BME280;63132;52.268;5.192;2023-04-23T04:41:37;100542.72;;;6.39;98.21
74627;BME280;63132;52.268;5.192;2023-04-23T04:44:03;100538.94;;;6.43;98.15
74627;BME280;63132;52.268;5.192;2023-04-23T04:46:28;100541.91;;;6.65;98.02
74627;BME280;63132;52.268;5.192;2023-04-23T04:48:55;100539.72;;;6.58;97.79
74627;BME280;63132;52.268;5.192;2023-04-23T04:51:21;100537.88;;;6.59;97.93
74627;BME280;63132;52.268;5.192;2023-04-23T04:53:47;100539.81;;;6.57;97.83
74627;BME280;63132;52.268;5.192;2023-04-23T04:56:12;100538.97;;;6.56;97.67
74627;BME280;63132;52.268;5.192;2023-04-23T04:58:37;100541.09;;;6.64;97.65
74627;BME280;63132;52.268;5.192;2023-04-23T05:01:03;100541.09;;;6.64;97.54
74627;BME280;63132;52.268;5.192;2023-04-23T05:03:29;100541.72;;;6.55;97.50
74627;BME280;63132;52.268;5.192;2023-04-23T05:05:55;100545.00;;;6.71;97.47
74627;BME280;63132;52.268;5.192;2023-04-23T05:08:22;100546.56;;;6.74;97.62
74627;BME280;63132;52.268;5.192;2023-04-23T05:10:47;100534.75;;;6.80;97.29
74627;BME280;63132;52.268;5.192;2023-04-23T05:13:15;100538.13;;;6.82;96.79
74627;BME280;63132;52.268;5.192;2023-04-23T05:15:40;100534.09;;;6.76;96.91
74627;BME280;63132;52.268;5.192;2023-04-23T05:18:08;100539.19;;;6.66;96.84
74627;BME280;63132;52.268;5.192;2023-04-23T05:20:34;100533.34;;;6.74;96.82
74627;BME280;63132;52.268;5.192;2023-04-23T05:22:59;100537.28;;;6.68;96.60
74627;BME280;63132;52.268;5.192;2023-04-23T05:25:26;100528.00;;;6.75;96.69
74627;BME280;63132;52.268;5.192;2023-04-23T05:27:51;100539.50;;;6.74;96.47
74627;BME280;63132;52.268;5.192;2023-04-23T05:30:17;100535.19;;;6.73;96.51
74627;BME280;63132;52.268;5.192;2023-04-23T05:32:43;100530.53;;;6.77;96.37
74627;BME280;63132;52.268;5.192;2023-04-23T05:35:08;100527.34;;;6.72;96.50
74627;BME280;63132;52.268;5.192;2023-04-23T05:37:34;100527.56;;;6.82;96.54
74627;BME280;63132;52.268;5.192;2023-04-23T05:39:59;100530.84;;;7.12;96.41
74627;BME280;63132;52.268;5.192;2023-04-23T05:42:26;100544.94;;;7.12;96.23
74627;BME280;63132;52.268;5.192;2023-04-23T05:44:51;100546.50;;;7.02;95.91
74627;BME280;63132;52.268;5.192;2023-04-23T05:47:17;100551.78;;;7.02;95.77
74627;BME280;63132;52.268;5.192;2023-04-23T05:49:42;100549.25;;;7.13;96.22
74627;BME280;63132;52.268;5.192;2023-04-23T05:52:07;100539.09;;;7.07;96.05
74627;BME280;63132;52.268;5.192;2023-04-23T05:54:33;100544.16;;;7.23;96.09
74627;BME280;63132;52.268;5.192;2023-04-23T05:56:58;100544.25;;;7.34;95.67
74627;BME280;63132;52.268;5.192;2023-04-23T05:59:24;100540.84;;;7.45;95.70
74627;BME280;63132;52.268;5.192;2023-04-23T06:01:49;100537.69;;;7.40;95.65
74627;BME280;63132;52.268;5.192;2023-04-23T06:04:15;100544.31;;;7.59;95.69
74627;BME280;63132;52.268;5.192;2023-04-23T06:06:43;100538.94;;;7.48;95.36
74627;BME280;63132;52.268;5.192;2023-04-23T06:09:09;100530.34;;;7.57;95.53
74627;BME280;63132;52.268;5.192;2023-04-23T06:11:34;100530.34;;;7.57;95.71
74627;BME280;63132;52.268;5.192;2023-04-23T06:14:01;100515.19;;;7.59;95.92
74627;BME280;63132;52.268;5.192;2023-04-23T06:16:26;100514.91;;;7.75;95.84
74627;BME280;63132;52.268;5.192;2023-04-23T06:18:51;100515.78;;;7.76;95.95
74627;BME280;63132;52.268;5.192;2023-04-23T06:21:18;100515.78;;;7.76;95.84
74627;BME280;63132;52.268;5.192;2023-04-23T06:23:44;100515.44;;;7.80;96.01
74627;BME280;63132;52.268;5.192;2023-04-23T06:26:09;100515.72;;;7.89;96.22
74627;BME280;63132;52.268;5.192;2023-04-23T06:28:34;100505.47;;;8.09;96.13
74627;BME280;63132;52.268;5.192;2023-04-23T06:31:00;100508.44;;;8.28;95.86
74627;BME280;63132;52.268;5.192;2023-04-23T06:33:26;100514.13;;;8.35;95.57
74627;BME280;63132;52.268;5.192;2023-04-23T06:35:52;100512.16;;;8.26;95.38
74627;BME280;63132;52.268;5.192;2023-04-23T06:38:17;100508.59;;;8.50;95.27
74627;BME280;63132;52.268;5.192;2023-04-23T06:40:45;100512.84;;;8.52;94.79
74627;BME280;63132;52.268;5.192;2023-04-23T06:43:10;100505.31;;;8.71;94.57
74627;BME280;63132;52.268;5.192;2023-04-23T06:45:36;100512.06;;;8.75;94.20
74627;BME280;63132;52.268;5.192;2023-04-23T06:48:01;100502.56;;;8.72;94.18
74627;BME280;63132;52.268;5.192;2023-04-23T06:50:26;100513.16;;;8.72;94.23
74627;BME280;63132;52.268;5.192;2023-04-23T06:52:52;100510.31;;;9.10;93.80
74627;BME280;63132;52.268;5.192;2023-04-23T06:55:18;100495.47;;;9.07;92.24
74627;BME280;63132;52.268;5.192;2023-04-23T06:57:45;100503.78;;;9.03;92.41
74627;BME280;63132;52.268;5.192;2023-04-23T07:00:10;100505.72;;;9.23;92.50
74627;BME280;63132;52.268;5.192;2023-04-23T07:02:36;100509.81;;;9.28;92.35
74627;BME280;63132;52.268;5.192;2023-04-23T07:05:01;100498.59;;;9.35;92.12
74627;BME280;63132;52.268;5.192;2023-04-23T07:07:27;100497.50;;;9.38;91.57
74627;BME280;63132;52.268;5.192;2023-04-23T07:09:52;100487.72;;;9.39;91.99
74627;BME280;63132;52.268;5.192;2023-04-23T07:12:18;100483.13;;;9.41;90.65
74627;BME280;63132;52.268;5.192;2023-04-23T07:14:43;100484.09;;;9.40;91.42
74627;BME280;63132;52.268;5.192;2023-04-23T07:17:08;100483.56;;;9.69;90.33
74627;BME280;63132;52.268;5.192;2023-04-23T07:19:35;100488.78;;;9.59;91.09
74627;BME280;63132;52.268;5.192;2023-04-23T07:22:01;100480.59;;;9.83;89.73
74627;BME280;63132;52.268;5.192;2023-04-23T07:24:26;100482.81;;;9.78;91.08
74627;BME280;63132;52.268;5.192;2023-04-23T07:26:51;100485.34;;;10.13;90.86
74627;BME280;63132;52.268;5.192;2023-04-23T07:29:18;100487.72;;;10.16;88.89
74627;BME280;63132;52.268;5.192;2023-04-23T07:31:43;100485.50;;;10.33;87.66
74627;BME280;63132;52.268;5.192;2023-04-23T07:34:09;100483.47;;;10.25;89.28
74627;BME280;63132;52.268;5.192;2023-04-23T07:36:35;100479.59;;;10.50;88.88
74627;BME280;63132;52.268;5.192;2023-04-23T07:39:00;100473.69;;;10.68;86.24
74627;BME280;63132;52.268;5.192;2023-04-23T07:41:26;100481.59;;;10.80;85.34
74627;BME280;63132;52.268;5.192;2023-04-23T07:43:51;100472.06;;;10.77;85.99
74627;BME280;63132;52.268;5.192;2023-04-23T07:46:16;100471.06;;;10.99;84.43
74627;BME280;63132;52.268;5.192;2023-04-23T07:48:42;100460.75;;;11.16;84.69
74627;BME280;63132;52.268;5.192;2023-04-23T07:51:07;100463.69;;;11.23;84.92
74627;BME280;63132;52.268;5.192;2023-04-23T07:53:33;100459.63;;;11.19;84.08
74627;BME280;63132;52.268;5.192;2023-04-23T07:55:59;100460.06;;;11.24;83.58
74627;BME280;63132;52.268;5.192;2023-04-23T07:58:24;100462.63;;;11.35;81.18
74627;BME280;63132;52.268;5.192;2023-04-23T08:00:50;100471.84;;;11.31;81.83
74627;BME280;63132;52.268;5.192;2023-04-23T08:03:15;100464.41;;;11.25;82.96
74627;BME280;63132;52.268;5.192;2023-04-23T08:05:40;100461.94;;;11.43;81.26
74627;BME280;63132;52.268;5.192;2023-04-23T08:08:07;100468.09;;;11.44;82.50
74627;BME280;63132;52.268;5.192;2023-04-23T08:10:33;100467.84;;;11.57;81.01
74627;BME280;63132;52.268;5.192;2023-04-23T08:12:59;100473.34;;;11.85;79.76
74627;BME280;63132;52.268;5.192;2023-04-23T08:15:24;100468.72;;;11.87;80.43
74627;BME280;63132;52.268;5.192;2023-04-23T08:17:49;100467.31;;;11.83;80.67
74627;BME280;63132;52.268;5.192;2023-04-23T08:20:15;100459.34;;;12.03;79.42
74627;BME280;63132;52.268;5.192;2023-04-23T08:22:40;100451.59;;;12.00;79.63
74627;BME280;63132;52.268;5.192;2023-04-23T08:25:06;100459.88;;;12.16;79.27
74627;BME280;63132;52.268;5.192;2023-04-23T08:27:31;100445.84;;;12.34;77.58
74627;BME280;63132;52.268;5.192;2023-04-23T08:29:56;100459.19;;;12.34;78.42
74627;BME280;63132;52.268;5.192;2023-04-23T08:32:22;100450.22;;;12.35;78.20
74627;BME280;63132;52.268;5.192;2023-04-23T08:34:47;100450.63;;;12.21;77.96
74627;BME280;63132;52.268;5.192;2023-04-23T08:37:12;100446.56;;;12.16;78.97
74627;BME280;63132;52.268;5.192;2023-04-23T08:39:37;100448.78;;;12.41;78.24
74627;BME280;63132;52.268;5.192;2023-04-23T08:42:04;100457.91;;;12.48;76.25
74627;BME280;63132;52.268;5.192;2023-04-23T08:44:35;100451.00;;;12.55;75.29
74627;BME280;63132;52.268;5.192;2023-04-23T08:47:03;100452.13;;;12.53;75.41
74627;BME280;63132;52.268;5.192;2023-04-23T08:49:32;100442.84;;;12.57;77.29
74627;BME280;63132;52.268;5.192;2023-04-23T08:52:05;100454.78;;;12.53;75.71
74627;BME280;63132;52.268;5.192;2023-04-23T08:54:36;100445.91;;;12.62;75.70
74627;BME280;63132;52.268;5.192;2023-04-23T08:57:02;100445.16;;;12.80;75.11
74627;BME280;63132;52.268;5.192;2023-04-23T08:59:29;100442.97;;;12.65;75.88
74627;BME280;63132;52.268;5.192;2023-04-23T09:01:56;100448.06;;;12.87;76.00
74627;BME280;63132;52.268;5.192;2023-04-23T09:04:21;100447.41;;;13.13;72.65
74627;BME280;63132;52.268;5.192;2023-04-23T09:06:48;100440.91;;;13.16;73.28
74627;BME280;63132;52.268;5.192;2023-04-23T09:09:14;100445.81;;;13.20;69.73
74627;BME280;63132;52.268;5.192;2023-04-23T09:11:40;100451.34;;;13.09;71.78
74627;BME280;63132;52.268;5.192;2023-04-23T09:14:06;100443.84;;;13.22;70.75
74627;BME280;63132;52.268;5.192;2023-04-23T09:16:32;100451.91;;;13.12;71.87
74627;BME280;63132;52.268;5.192;2023-04-23T09:18:57;100444.47;;;13.06;72.38
74627;BME280;63132;52.268;5.192;2023-04-23T09:21:23;100447.00;;;13.36;72.55
74627;BME280;63132;52.268;5.192;2023-04-23T09:23:51;100442.78;;;13.80;70.90
74627;BME280;63132;52.268;5.192;2023-04-23T09:26:21;100434.94;;;14.23;68.87
74627;BME280;63132;52.268;5.192;2023-04-23T09:28:48;100426.66;;;14.61;68.83
74627;BME280;63132;52.268;5.192;2023-04-23T09:31:19;100431.53;;;14.93;66.61
74627;BME280;63132;52.268;5.192;2023-04-23T09:33:52;100422.34;;;15.03;66.54
74627;BME280;63132;52.268;5.192;2023-04-23T09:36:22;100425.59;;;15.24;65.55
74627;BME280;63132;52.268;5.192;2023-04-23T09:38:48;100418.09;;;15.36;63.98
74627;BME280;63132;52.268;5.192;2023-04-23T09:41:21;100427.16;;;15.43;64.70
74627;BME280;63132;52.268;5.192;2023-04-23T09:43:47;100424.81;;;15.48;62.41
74627;BME280;63132;52.268;5.192;2023-04-23T09:46:12;100420.31;;;15.41;62.20
74627;BME280;63132;52.268;5.192;2023-04-23T09:48:41;100428.47;;;15.31;63.52
74627;BME280;63132;52.268;5.192;2023-04-23T09:51:07;100417.25;;;15.35;61.71
74627;BME280;63132;52.268;5.192;2023-04-23T09:53:40;100421.75;;;15.26;62.15
74627;BME280;63132;52.268;5.192;2023-04-23T09:56:06;100416.06;;;15.30;62.45
74627;BME280;63132;52.268;5.192;2023-04-23T09:58:31;100420.41;;;15.22;62.75
74627;BME280;63132;52.268;5.192;2023-04-23T10:01:08;100427.47;;;15.23;62.66
74627;BME280;63132;52.268;5.192;2023-04-23T10:03:33;100429.13;;;15.24;63.33
74627;BME280;63132;52.268;5.192;2023-04-23T10:05:59;100421.50;;;15.46;63.70
74627;BME280;63132;52.268;5.192;2023-04-23T10:08:26;100413.78;;;15.68;62.94
74627;BME280;63132;52.268;5.192;2023-04-23T10:10:51;100416.81;;;15.73;59.91
74627;BME280;63132;52.268;5.192;2023-04-23T10:13:17;100412.66;;;16.04;61.03
74627;BME280;63132;52.268;5.192;2023-04-23T10:15:45;100417.03;;;16.05;60.13
74627;BME280;63132;52.268;5.192;2023-04-23T10:18:12;100413.31;;;15.90;60.33
74627;BME280;63132;52.268;5.192;2023-04-23T10:20:38;100415.97;;;15.81;60.01
74627;BME280;63132;52.268;5.192;2023-04-23T10:23:05;100415.00;;;15.82;60.70
74627;BME280;63132;52.268;5.192;2023-04-23T10:25:33;100410.47;;;16.00;59.32
74627;BME280;63132;52.268;5.192;2023-04-23T10:28:01;100409.44;;;16.17;58.50
74627;BME280;63132;52.268;5.192;2023-04-23T10:30:28;100407.25;;;16.38;58.70
74627;BME280;63132;52.268;5.192;2023-04-23T10:32:54;100407.69;;;16.58;57.86
74627;BME280;63132;52.268;5.192;2023-04-23T10:35:21;100402.63;;;16.63;56.71
74627;BME280;63132;52.268;5.192;2023-04-23T10:37:47;100389.41;;;16.93;57.08
74627;BME280;63132;52.268;5.192;2023-04-23T10:40:15;100387.00;;;17.15;54.67
74627;BME280;63132;52.268;5.192;2023-04-23T10:42:43;100388.72;;;17.00;56.01
74627;BME280;63132;52.268;5.192;2023-04-23T10:45:13;100386.63;;;17.19;54.96
74627;BME280;63132;52.268;5.192;2023-04-23T10:47:41;100380.81;;;17.38;53.29
74627;BME280;63132;52.268;5.192;2023-04-23T10:50:21;100374.59;;;17.61;52.79
74627;BME280;63132;52.268;5.192;2023-04-23T10:52:46;100377.94;;;17.63;52.68
74627;BME280;63132;52.268;5.192;2023-04-23T10:55:22;100364.66;;;17.85;52.71
74627;BME280;63132;52.268;5.192;2023-04-23T10:58:02;100357.66;;;17.76;51.87
74627;BME280;63132;52.268;5.192;2023-04-23T11:03:39;100356.66;;;17.77;50.15
74627;BME280;63132;52.268;5.192;2023-04-23T11:06:06;100359.91;;;17.87;51.25
74627;BME280;63132;52.268;5.192;2023-04-23T11:08:35;100350.09;;;17.95;51.56
74627;BME280;63132;52.268;5.192;2023-04-23T11:11:06;100344.09;;;18.08;51.65
74627;BME280;63132;52.268;5.192;2023-04-23T11:13:32;100345.38;;;18.12;52.06
74627;BME280;63132;52.268;5.192;2023-04-23T11:16:14;100353.53;;;17.89;51.55
74627;BME280;63132;52.268;5.192;2023-04-23T11:18:59;100350.81;;;17.50;52.37
74627;BME280;63132;52.268;5.192;2023-04-23T11:21:56;100336.19;;;18.06;49.18
74627;BME280;63132;52.268;5.192;2023-04-23T11:26:57;100338.84;;;17.76;50.11
74627;BME280;63132;52.268;5.192;2023-04-23T11:29:25;100338.31;;;17.81;50.67
74627;BME280;63132;52.268;5.192;2023-04-23T11:31:52;100324.91;;;17.72;50.88
74627;BME280;63132;52.268;5.192;2023-04-23T11:34:19;100327.44;;;17.89;50.25
74627;BME280;63132;52.268;5.192;2023-04-23T11:36:47;100322.84;;;17.98;50.02
74627;BME280;63132;52.268;5.192;2023-04-23T11:39:13;100313.94;;;18.43;49.43
74627;BME280;63132;52.268;5.192;2023-04-23T11:41:39;100306.16;;;18.63;48.54
74627;BME280;63132;52.268;5.192;2023-04-23T11:44:04;100306.84;;;18.72;47.55
74627;BME280;63132;52.268;5.192;2023-04-23T11:46:31;100299.94;;;18.85;48.81
74627;BME280;63132;52.268;5.192;2023-04-23T11:48:58;100304.81;;;18.96;47.55
74627;BME280;63132;52.268;5.192;2023-04-23T11:51:27;100287.31;;;19.22;47.01
74627;BME280;63132;52.268;5.192;2023-04-23T11:53:52;100282.81;;;18.92;47.17
74627;BME280;63132;52.268;5.192;2023-04-23T11:56:18;100285.50;;;19.30;46.05
74627;BME280;63132;52.268;5.192;2023-04-23T11:58:57;100280.59;;;19.69;45.15
74627;BME280;63132;52.268;5.192;2023-04-23T12:01:22;100278.16;;;19.01;44.92
74627;BME280;63132;52.268;5.192;2023-04-23T12:03:48;100274.13;;;19.34;44.86
74627;BME280;63132;52.268;5.192;2023-04-23T12:06:16;100270.09;;;19.23;46.79
74627;BME280;63132;52.268;5.192;2023-04-23T12:08:45;100282.41;;;19.33;46.00
74627;BME280;63132;52.268;5.192;2023-04-23T12:11:11;100269.13;;;19.31;45.15
74627;BME280;63132;52.268;5.192;2023-04-23T12:13:39;100270.06;;;19.45;44.79
74627;BME280;63132;52.268;5.192;2023-04-23T12:16:04;100265.59;;;19.88;43.43
74627;BME280;63132;52.268;5.192;2023-04-23T12:18:34;100263.84;;;19.73;43.57
74627;BME280;63132;52.268;5.192;2023-04-23T12:21:21;100254.78;;;19.52;42.48
74627;BME280;63132;52.268;5.192;2023-04-23T12:23:50;100263.00;;;19.73;43.11
74627;BME280;63132;52.268;5.192;2023-04-23T12:26:15;100256.28;;;19.91;42.97
74627;BME280;63132;52.268;5.192;2023-04-23T12:28:56;100255.91;;;20.01;43.89
74627;BME280;63132;52.268;5.192;2023-04-23T12:31:25;100251.50;;;19.93;43.91
74627;BME280;63132;52.268;5.192;2023-04-23T12:34:03;100247.84;;;19.72;44.26
74627;BME280;63132;52.268;5.192;2023-04-23T12:36:29;100254.53;;;19.76;44.83
74627;BME280;63132;52.268;5.192;2023-04-23T12:41:43;100234.38;;;19.43;44.44
74627;BME280;63132;52.268;5.192;2023-04-23T12:44:08;100225.84;;;19.39;43.60
74627;BME280;63132;52.268;5.192;2023-04-23T12:46:34;100229.56;;;19.67;43.89
74627;BME280;63132;52.268;5.192;2023-04-23T12:48:59;100215.47;;;19.72;43.27
74627;BME280;63132;52.268;5.192;2023-04-23T12:51:24;100218.28;;;19.92;43.43
74627;BME280;63132;52.268;5.192;2023-04-23T12:53:50;100215.00;;;19.97;42.96
74627;BME280;63132;52.268;5.192;2023-04-23T12:56:16;100217.34;;;20.07;44.28
74627;BME280;63132;52.268;5.192;2023-04-23T12:58:41;100212.31;;;20.04;44.44
74627;BME280;63132;52.268;5.192;2023-04-23T13:01:06;100209.97;;;19.87;45.67